Terminal Aerodrome Forecast
Issued by NWS

Home | Current Version | Previous Version | Text Only | Print | Product List | Glossary On
Versions: 1 2 3 4 5 6 7 8 9 10 11 12 13 14 15 16 17 18 19 20 21 22 23 24 25 26 27 28
000
FTUS44 KLZK 170302 AAB
TAFBPK
TAF AMD
KBPK 170302Z 1703/1724 28005KT P6SM SCT025
     FM170600 27005KT P6SM BKN025
     FM171500 28005KT P6SM OVC015
     FM172000 29004KT P6SM BKN025=

USA.gov is the U.S. government's official web portal to all federal, state and local government web resources and services.